createdAt,value
2022-08-29T00:02:07.567Z,16.00
2022-08-29T00:04:36.655Z,13.35
2022-08-29T00:07:06.231Z,15.93
2022-08-29T00:09:34.232Z,17.98
2022-08-29T00:12:02.515Z,14.52
2022-08-29T00:14:30.550Z,16.27
2022-08-29T00:16:58.789Z,16.23
2022-08-29T00:19:26.836Z,14.63
2022-08-29T00:21:54.922Z,18.02
2022-08-29T00:24:24.254Z,17.90
2022-08-29T00:26:52.396Z,18.00
2022-08-29T00:29:20.418Z,18.33
2022-08-29T00:31:48.571Z,15.98
2022-08-29T00:34:16.688Z,17.73
2022-08-29T00:36:49.105Z,23.17
2022-08-29T00:39:17.600Z,17.80
2022-08-29T00:41:52.712Z,18.77
2022-08-29T00:44:20.901Z,24.60
2022-08-29T00:46:52.660Z,18.05
2022-08-29T00:49:30.226Z,20.67
2022-08-29T00:52:01.213Z,22.60
2022-08-29T00:54:29.484Z,21.13
2022-08-29T00:57:00.099Z,25.08
2022-08-29T00:59:33.962Z,20.23
2022-08-29T01:02:03.961Z,20.17
2022-08-29T01:04:32.934Z,20.17
2022-08-29T01:07:01.533Z,23.70
2022-08-29T01:09:31.024Z,17.58
2022-08-29T01:12:18.091Z,20.92
2022-08-29T01:14:51.126Z,17.33
2022-08-29T01:17:23.497Z,18.00
2022-08-29T01:19:57.167Z,17.33
2022-08-29T01:22:40.580Z,20.13
2022-08-29T01:25:12.623Z,17.83
2022-08-29T01:27:44.391Z,18.65
2022-08-29T01:30:15.223Z,20.25
2022-08-29T01:32:43.531Z,22.80
2022-08-29T01:35:11.904Z,18.40
2022-08-29T01:37:43.203Z,19.38
2022-08-29T01:40:14.376Z,20.48
2022-08-29T01:42:42.573Z,21.05
2022-08-29T01:45:11.591Z,18.50
2022-08-29T01:47:40.264Z,21.20
2022-08-29T01:50:16.545Z,18.10
2022-08-29T01:52:44.956Z,19.38
2022-08-29T01:55:14.475Z,19.50
2022-08-29T01:57:42.853Z,20.20
2022-08-29T02:00:12.890Z,18.40
2022-08-29T02:02:43.070Z,17.58
2022-08-29T02:05:24.277Z,20.02
2022-08-29T02:07:52.561Z,20.00
2022-08-29T02:10:22.071Z,18.20
2022-08-29T02:12:50.361Z,21.95
2022-08-29T02:15:19.096Z,18.85
2022-08-29T02:17:48.483Z,21.15
2022-08-29T02:20:17.176Z,21.67
2022-08-29T02:23:02.481Z,20.63
2022-08-29T02:25:46.595Z,28.52
2022-08-29T02:28:18.201Z,24.38
2022-08-29T02:30:49.906Z,23.38
2022-08-29T02:33:21.897Z,24.00
2022-08-29T02:35:50.943Z,24.83
2022-08-29T02:38:19.206Z,20.27
2022-08-29T02:40:56.461Z,20.05
2022-08-29T02:43:26.152Z,22.48
2022-08-29T02:45:54.376Z,25.27
2022-08-29T02:48:22.506Z,25.05
2022-08-29T02:50:52.291Z,27.45
2022-08-29T02:53:24.525Z,26.15
2022-08-29T02:55:54.221Z,23.33
2022-08-29T02:58:24.751Z,28.42
2022-08-29T03:01:27.975Z,32.33
2022-08-29T03:03:56.220Z,34.15
2022-08-29T03:06:24.677Z,34.30
2022-08-29T03:08:54.189Z,31.80
2022-08-29T03:11:24.096Z,29.63
2022-08-29T03:13:52.399Z,36.42
2022-08-29T03:16:26.296Z,35.25
2022-08-29T03:19:14.043Z,33.05
2022-08-29T03:22:00.768Z,36.00
2022-08-29T03:24:31.736Z,39.72
2022-08-29T03:27:01.760Z,36.72
2022-08-29T03:29:30.022Z,34.80
2022-08-29T03:31:58.787Z,32.63
2022-08-29T03:34:27.397Z,33.78
2022-08-29T03:36:55.693Z,39.63
2022-08-29T03:39:44.488Z,37.53
2022-08-29T03:42:14.354Z,41.95
2022-08-29T03:44:43.542Z,42.70
2022-08-29T03:47:13.362Z,40.78
2022-08-29T03:49:41.834Z,38.88
2022-08-29T03:52:10.134Z,39.10
2022-08-29T03:54:38.237Z,43.78
2022-08-29T03:57:06.687Z,36.20
2022-08-29T03:59:36.079Z,37.88
2022-08-29T04:02:04.704Z,42.00
2022-08-29T04:04:50.106Z,38.33
2022-08-29T04:07:18.209Z,40.17
2022-08-29T04:09:46.309Z,38.00
2022-08-29T04:12:14.905Z,43.97
2022-08-29T04:14:44.288Z,44.53
2022-08-29T04:17:12.537Z,39.33
2022-08-29T04:19:40.655Z,35.55
2022-08-29T04:22:09.579Z,41.13
2022-08-29T04:24:37.568Z,41.45
2022-08-29T04:27:06.027Z,35.00
2022-08-29T04:29:35.447Z,35.88
2022-08-29T04:32:05.521Z,34.88
2022-08-29T04:34:33.590Z,33.88
2022-08-29T04:37:01.671Z,44.90
2022-08-29T04:39:29.757Z,51.78
2022-08-29T04:41:57.892Z,50.22
2022-08-29T04:44:25.929Z,43.08
2022-08-29T04:46:54.054Z,41.00
2022-08-29T04:49:23.563Z,47.90
2022-08-29T04:51:53.828Z,42.67
2022-08-29T04:54:21.905Z,34.10
2022-08-29T04:56:50.161Z,34.60
2022-08-29T04:59:19.560Z,32.83
2022-08-29T05:01:48.865Z,28.75
2022-08-29T05:04:17.059Z,24.27
2022-08-29T05:06:46.583Z,27.73
2022-08-29T05:09:15.202Z,21.10
2022-08-29T05:11:43.809Z,18.92
2022-08-29T05:14:12.118Z,13.52
2022-08-29T05:16:40.862Z,11.65
2022-08-29T05:19:09.990Z,9.23
2022-08-29T05:21:40.012Z,8.02
2022-08-29T05:24:11.713Z,7.18
2022-08-29T05:26:41.868Z,8.43
2022-08-29T05:29:11.516Z,7.75
2022-08-29T05:31:41.246Z,9.43
2022-08-29T05:34:32.471Z,8.48
2022-08-29T05:36:58.795Z,7.07
2022-08-29T05:39:28.206Z,7.30
2022-08-29T05:41:56.407Z,9.13
2022-08-29T05:44:24.767Z,9.13
2022-08-29T05:46:52.919Z,6.80
2022-08-29T05:49:21.318Z,9.15
2022-08-29T05:51:49.468Z,7.93
2022-08-29T05:54:17.529Z,7.50
2022-08-29T05:56:47.237Z,7.55
2022-08-29T05:59:16.995Z,8.32
2022-08-29T06:02:27.439Z,6.50
2022-08-29T06:04:55.710Z,9.77
2022-08-29T06:07:23.799Z,7.93
2022-08-29T06:09:53.006Z,8.70
2022-08-29T06:12:24.359Z,7.43
2022-08-29T06:14:52.716Z,7.82
2022-08-29T06:17:21.019Z,10.82
2022-08-29T06:19:51.676Z,9.07
2022-08-29T06:22:19.891Z,9.10
2022-08-29T06:24:48.050Z,9.05
2022-08-29T06:27:16.907Z,8.80
2022-08-29T06:29:46.317Z,11.70
2022-08-29T06:32:14.640Z,8.55
2022-08-29T06:34:42.833Z,11.57
2022-08-29T06:37:11.020Z,10.18
2022-08-29T06:39:39.218Z,9.10
2022-08-29T06:42:07.662Z,10.77
2022-08-29T06:44:35.976Z,8.20
2022-08-29T06:47:05.540Z,11.23
2022-08-29T06:49:34.423Z,9.32
2022-08-29T06:52:02.550Z,11.05
2022-08-29T06:54:30.666Z,12.27
2022-08-29T06:56:59.937Z,11.75
2022-08-29T06:59:28.407Z,12.00
2022-08-29T07:01:56.711Z,12.02
2022-08-29T07:04:26.634Z,14.57
2022-08-29T07:06:55.074Z,13.18
2022-08-29T07:09:23.393Z,12.80
2022-08-29T07:11:51.494Z,11.02
2022-08-29T07:14:19.603Z,11.77
2022-08-29T07:16:47.579Z,13.95
2022-08-29T07:19:15.791Z,11.88
2022-08-29T07:21:45.159Z,13.07
2022-08-29T07:24:13.529Z,15.13
2022-08-29T07:26:44.342Z,14.48
2022-08-29T07:29:15.561Z,14.48
2022-08-29T07:31:43.840Z,11.73
2022-08-29T07:34:12.786Z,13.68
2022-08-29T07:36:41.664Z,13.70
2022-08-29T07:39:14.656Z,11.23
2022-08-29T07:41:44.713Z,12.90
2022-08-29T07:44:14.170Z,9.98
2022-08-29T07:46:42.654Z,14.38
2022-08-29T07:49:11.921Z,15.60
2022-08-29T07:51:42.993Z,17.15
2022-08-29T07:54:16.826Z,14.50
2022-08-29T07:56:46.496Z,16.75
2022-08-29T07:59:14.990Z,11.55
2022-08-29T08:01:43.407Z,12.88
2022-08-29T08:04:12.474Z,16.30
2022-08-29T08:06:42.794Z,11.95
2022-08-29T08:09:11.533Z,10.95
2022-08-29T08:11:42.246Z,12.18
2022-08-29T08:14:10.798Z,9.45
2022-08-29T08:16:39.157Z,12.68
2022-08-29T08:19:13.350Z,13.65
2022-08-29T08:21:43.691Z,13.20
2022-08-29T08:24:19.782Z,14.00
2022-08-29T08:26:50.368Z,12.35
2022-08-29T08:29:18.602Z,10.90
2022-08-29T08:31:48.891Z,14.13
2022-08-29T08:34:17.470Z,14.82
2022-08-29T08:36:46.407Z,11.70
2022-08-29T08:39:15.189Z,15.48
2022-08-29T08:41:53.033Z,13.65
2022-08-29T08:44:56.556Z,12.20
2022-08-29T08:47:28.928Z,13.65
2022-08-29T08:50:02.328Z,16.75
2022-08-29T08:52:40.212Z,16.23
2022-08-29T08:55:18.112Z,14.68
2022-08-29T08:57:56.327Z,18.52
2022-08-29T09:00:24.497Z,18.67
2022-08-29T09:03:03.084Z,18.67
2022-08-29T09:05:40.694Z,17.73
2022-08-29T09:08:22.047Z,15.10
2022-08-29T09:10:59.277Z,18.55
2022-08-29T09:13:38.618Z,19.50
2022-08-29T09:16:10.793Z,18.88
2022-08-29T09:18:40.714Z,13.48
2022-08-29T09:21:39.397Z,17.95
2022-08-29T09:24:06.717Z,13.88
2022-08-29T09:26:35.544Z,12.77
2022-08-29T09:29:05.122Z,14.75
2022-08-29T09:31:34.941Z,16.38
2022-08-29T09:34:05.663Z,10.45
2022-08-29T09:36:37.627Z,10.20
2022-08-29T09:39:21.514Z,14.73
2022-08-29T09:41:51.713Z,10.20
2022-08-29T09:44:27.880Z,9.65
2022-08-29T09:47:07.769Z,10.63
2022-08-29T09:49:38.541Z,11.13
2022-08-29T09:52:12.552Z,8.27
2022-08-29T09:54:41.415Z,11.75
2022-08-29T09:57:21.305Z,7.82
2022-08-29T10:00:10.266Z,7.40
2022-08-29T10:02:46.218Z,9.68
2022-08-29T10:05:31.045Z,8.77
2022-08-29T10:07:59.192Z,10.07
2022-08-29T10:10:30.155Z,11.60
2022-08-29T10:13:03.712Z,8.30
2022-08-29T10:15:50.361Z,7.53
2022-08-29T10:18:38.180Z,6.78
2022-08-29T10:21:14.629Z,15.07
2022-08-29T10:23:54.842Z,8.18
2022-08-29T10:26:34.222Z,9.15
2022-08-29T10:29:12.469Z,6.35
2022-08-29T10:31:49.240Z,8.85
2022-08-29T10:34:34.525Z,8.32
2022-08-29T10:37:11.546Z,10.23
2022-08-29T10:39:47.540Z,10.43
2022-08-29T10:42:19.409Z,9.63
2022-08-29T10:44:58.603Z,8.07
2022-08-29T10:47:33.458Z,8.43
2022-08-29T10:50:42.584Z,9.20
2022-08-29T10:53:14.665Z,9.85
2022-08-29T10:55:53.124Z,7.28
2022-08-29T10:58:32.585Z,9.18
2022-08-29T11:01:09.509Z,7.97
2022-08-29T11:03:44.858Z,8.23
2022-08-29T11:06:22.318Z,7.38
2022-08-29T11:08:55.552Z,8.50
2022-08-29T11:11:26.547Z,8.75
2022-08-29T11:14:03.531Z,8.00
2022-08-29T11:16:37.938Z,10.27
2022-08-29T11:19:22.052Z,7.90
2022-08-29T11:21:56.837Z,9.45
2022-08-29T11:24:34.161Z,7.60
2022-08-29T11:27:11.369Z,7.65
2022-08-29T11:29:48.583Z,6.15
2022-08-29T11:32:28.139Z,7.32
2022-08-29T11:35:10.731Z,8.20
2022-08-29T11:38:03.763Z,13.73
2022-08-29T11:41:26.089Z,9.85
2022-08-29T11:43:40.897Z,6.28
2022-08-29T11:46:15.075Z,6.32
2022-08-29T11:48:45.382Z,7.15
2022-08-29T11:51:37.480Z,5.93
2022-08-29T11:54:48.566Z,8.32
2022-08-29T11:57:53.170Z,8.98
2022-08-29T12:00:46.920Z,8.07
2022-08-29T12:03:51.975Z,8.73
2022-08-29T12:06:53.907Z,10.15
2022-08-29T12:09:46.151Z,6.15
2022-08-29T12:12:39.515Z,6.32
2022-08-29T12:15:47.039Z,8.02
2022-08-29T12:18:46.305Z,12.05
2022-08-29T12:21:41.356Z,9.65
2022-08-29T12:24:30.001Z,5.88
2022-08-29T12:26:58.331Z,9.55
2022-08-29T12:29:31.069Z,8.40
2022-08-29T12:32:29.655Z,6.18
2022-08-29T12:35:29.222Z,5.50
2022-08-29T12:38:10.795Z,5.75
2022-08-29T12:40:58.053Z,4.85
2022-08-29T12:43:37.776Z,6.60
2022-08-29T12:46:15.280Z,10.52
2022-08-29T12:48:57.730Z,5.88
2022-08-29T12:51:35.740Z,8.50
2022-08-29T12:54:03.888Z,6.78
2022-08-29T12:56:34.237Z,7.20
2022-08-29T12:59:05.097Z,7.43
2022-08-29T13:01:38.016Z,11.30
2022-08-29T13:04:14.934Z,6.53
2022-08-29T13:06:55.158Z,9.07
2022-08-29T13:09:29.151Z,6.53
2022-08-29T13:12:15.463Z,7.35
2022-08-29T13:14:52.334Z,7.90
2022-08-29T13:17:24.441Z,5.07
2022-08-29T13:20:30.101Z,6.93
2022-08-29T13:23:21.997Z,5.78
2022-08-29T13:25:57.397Z,6.13
2022-08-29T13:28:35.877Z,7.55
2022-08-29T13:31:26.379Z,4.93
2022-08-29T13:34:19.417Z,7.57
2022-08-29T13:36:59.017Z,6.28
2022-08-29T13:39:36.960Z,7.70
2022-08-29T13:42:15.925Z,5.32
2022-08-29T13:45:17.742Z,9.25
2022-08-29T13:47:56.520Z,6.72
2022-08-29T13:50:28.487Z,8.23
2022-08-29T13:52:57.948Z,6.80
2022-08-29T13:55:26.515Z,8.05
2022-08-29T13:57:56.390Z,4.03
2022-08-29T14:00:32.190Z,7.65
2022-08-29T14:03:05.430Z,5.40
2022-08-29T14:05:35.296Z,7.60
2022-08-29T14:08:04.414Z,6.88
2022-08-29T14:10:32.475Z,5.05
2022-08-29T14:13:00.623Z,5.65
2022-08-29T14:15:30.071Z,4.80
2022-08-29T14:17:59.104Z,5.38
2022-08-29T14:20:27.333Z,7.93
2022-08-29T14:22:55.631Z,3.97
2022-08-29T14:25:23.739Z,6.28
2022-08-29T14:27:53.615Z,6.03
2022-08-29T14:30:23.666Z,5.88
2022-08-29T14:32:53.256Z,4.40
2022-08-29T14:35:26.451Z,5.10
2022-08-29T14:38:01.475Z,6.13
2022-08-29T14:40:30.719Z,7.55
2022-08-29T14:42:59.277Z,6.00
2022-08-29T14:45:27.889Z,9.25
2022-08-29T14:47:57.911Z,5.07
2022-08-29T14:50:26.445Z,6.15
2022-08-29T14:52:54.987Z,5.35
2022-08-29T14:55:23.443Z,5.65
2022-08-29T14:57:51.677Z,5.68
2022-08-29T15:00:22.233Z,5.35
2022-08-29T15:02:50.769Z,3.65
2022-08-29T15:05:20.371Z,9.00
2022-08-29T15:07:48.695Z,8.43
2022-08-29T15:10:19.191Z,6.10
2022-08-29T15:12:47.495Z,5.53
2022-08-29T15:15:15.523Z,5.18
2022-08-29T15:17:44.387Z,7.07
2022-08-29T15:23:04.286Z,10.90
2022-08-29T15:25:32.557Z,6.53
2022-08-29T15:28:00.587Z,8.15
2022-08-29T15:30:28.734Z,5.70
2022-08-29T15:32:56.906Z,5.85
2022-08-29T15:35:25.123Z,8.18
2022-08-29T15:37:54.458Z,8.00
2022-08-29T15:40:24.591Z,6.50
2022-08-29T15:42:52.766Z,8.05
2022-08-29T15:45:22.633Z,6.50
2022-08-29T15:47:54.035Z,5.45
2022-08-29T15:50:23.875Z,6.75
2022-08-29T15:52:52.003Z,6.80
2022-08-29T15:55:20.135Z,5.32
2022-08-29T15:57:52.503Z,9.95
2022-08-29T16:00:30.788Z,6.35
2022-08-29T16:03:01.916Z,6.68
2022-08-29T16:05:30.723Z,5.10
2022-08-29T16:07:59.302Z,5.50
2022-08-29T16:10:27.468Z,5.38
2022-08-29T16:12:56.818Z,7.35
2022-08-29T16:15:25.141Z,7.07
2022-08-29T16:17:56.368Z,7.03
2022-08-29T16:20:24.478Z,5.22
2022-08-29T16:22:52.588Z,6.60
2022-08-29T16:25:21.418Z,5.45
2022-08-29T16:27:50.446Z,5.25
2022-08-29T16:30:20.497Z,4.85
2022-08-29T16:32:50.107Z,5.65
2022-08-29T16:35:20.197Z,5.63
2022-08-29T16:37:59.664Z,5.72
2022-08-29T16:40:32.335Z,4.30
2022-08-29T16:43:02.675Z,4.57
2022-08-29T16:45:33.053Z,6.72
2022-08-29T16:48:01.425Z,4.28
2022-08-29T16:50:33.685Z,4.50
2022-08-29T16:53:15.711Z,5.35
2022-08-29T16:55:43.881Z,5.07
2022-08-29T16:58:29.612Z,5.72
2022-08-29T17:01:00.254Z,4.75
2022-08-29T17:03:28.359Z,4.57
2022-08-29T17:05:56.669Z,4.13
2022-08-29T17:08:23.816Z,5.95
2022-08-29T17:10:51.274Z,6.53
2022-08-29T17:13:18.330Z,3.95
2022-08-29T17:15:45.346Z,3.97
2022-08-29T17:18:15.462Z,5.00
2022-08-29T17:20:46.241Z,5.15
2022-08-29T17:23:15.832Z,9.15
2022-08-29T17:25:44.126Z,4.90
2022-08-29T17:28:19.433Z,5.93
2022-08-29T17:30:48.941Z,5.00
2022-08-29T17:33:19.519Z,4.25
2022-08-29T17:35:48.274Z,4.38
2022-08-29T17:38:16.530Z,6.93
2022-08-29T17:40:45.030Z,8.43
2022-08-29T17:43:14.046Z,5.13
2022-08-29T17:45:42.244Z,3.92
2022-08-29T17:48:10.292Z,8.10
2022-08-29T17:50:39.820Z,5.65
2022-08-29T17:53:08.290Z,6.28
2022-08-29T17:55:36.623Z,9.48
2022-08-29T17:58:04.765Z,4.93
2022-08-29T18:00:33.322Z,6.68
2022-08-29T18:03:01.487Z,7.25
2022-08-29T18:05:29.646Z,8.43
2022-08-29T18:07:59.164Z,4.63
2022-08-29T18:10:27.777Z,7.03
2022-08-29T18:12:55.810Z,6.60
2022-08-29T18:15:24.294Z,9.27
2022-08-29T18:17:53.913Z,10.85
2022-08-29T18:20:23.262Z,8.18
2022-08-29T18:22:51.350Z,5.53
2022-08-29T18:25:22.623Z,6.55
2022-08-29T18:27:51.599Z,7.78
2022-08-29T18:30:23.135Z,4.70
2022-08-29T18:32:51.236Z,5.78
2022-08-29T18:35:19.810Z,5.13
2022-08-29T18:37:47.953Z,5.25
2022-08-29T18:40:16.057Z,5.57
2022-08-29T18:42:45.548Z,9.88
2022-08-29T18:45:14.100Z,7.63
2022-08-29T18:47:42.303Z,6.53
2022-08-29T18:50:28.948Z,5.25
2022-08-29T18:52:57.358Z,7.60
2022-08-29T18:55:25.877Z,6.78
2022-08-29T18:57:56.570Z,6.85
2022-08-29T19:00:25.597Z,6.55
2022-08-29T19:02:54.167Z,5.47
2022-08-29T19:05:24.455Z,7.47
2022-08-29T19:07:52.965Z,6.00
2022-08-29T19:10:26.077Z,7.53
2022-08-29T19:12:56.140Z,7.57
2022-08-29T19:15:26.363Z,6.53
2022-08-29T19:17:55.039Z,8.95
2022-08-29T19:20:44.080Z,10.55
2022-08-29T19:23:12.644Z,5.95
2022-08-29T19:25:41.063Z,8.73
2022-08-29T19:28:11.604Z,7.50
2022-08-29T19:30:39.944Z,12.65
2022-08-29T19:33:08.982Z,8.70
2022-08-29T19:35:38.548Z,10.93
2022-08-29T19:38:07.869Z,7.70
2022-08-29T19:40:39.279Z,9.32
2022-08-29T19:43:13.626Z,9.15
2022-08-29T19:45:44.465Z,5.70
2022-08-29T19:48:15.197Z,8.23
2022-08-29T19:50:47.866Z,7.97
2022-08-29T19:53:26.488Z,6.60
2022-08-29T19:55:56.152Z,10.82
2022-08-29T19:58:31.483Z,7.03
2022-08-29T20:01:02.705Z,9.48
2022-08-29T20:03:31.695Z,7.65
2022-08-29T20:06:00.301Z,9.68
2022-08-29T20:08:31.231Z,11.02
2022-08-29T20:10:59.783Z,8.57
2022-08-29T20:13:32.863Z,9.82
2022-08-29T20:16:12.096Z,9.73
2022-08-29T20:18:41.484Z,8.18
2022-08-29T20:21:09.637Z,8.52
2022-08-29T20:23:43.573Z,9.20
2022-08-29T20:26:18.716Z,7.20
2022-08-29T20:28:47.296Z,12.35
2022-08-29T20:31:16.863Z,11.88
2022-08-29T20:33:46.417Z,8.93
2022-08-29T20:36:34.158Z,9.32
2022-08-29T20:39:09.168Z,10.95
2022-08-29T20:41:37.329Z,10.65
2022-08-29T20:44:07.903Z,6.78
2022-08-29T20:46:41.374Z,7.80
2022-08-29T20:49:10.204Z,8.32
2022-08-29T20:51:39.055Z,9.70
2022-08-29T20:54:10.129Z,10.05
2022-08-29T20:56:38.354Z,12.43
2022-08-29T20:59:07.176Z,13.40
2022-08-29T21:01:36.498Z,8.23
2022-08-29T21:04:25.963Z,7.28
2022-08-29T21:06:55.615Z,8.48
2022-08-29T21:09:23.714Z,10.98
2022-08-29T21:11:52.749Z,9.55
2022-08-29T21:14:22.522Z,10.52
2022-08-29T21:16:51.326Z,12.02
2022-08-29T21:19:21.265Z,9.18
2022-08-29T21:21:51.207Z,10.35
2022-08-29T21:24:20.449Z,9.48
2022-08-29T21:26:49.923Z,8.77
2022-08-29T21:29:19.535Z,16.42
2022-08-29T21:31:48.178Z,7.00
2022-08-29T21:34:17.142Z,9.82
2022-08-29T21:36:49.888Z,10.95
2022-08-29T21:39:27.978Z,9.55
2022-08-29T21:41:56.587Z,9.23
2022-08-29T21:44:24.858Z,10.68
2022-08-29T21:46:53.966Z,9.50
2022-08-29T21:49:23.067Z,10.63
2022-08-29T21:51:52.494Z,12.00
2022-08-29T21:54:21.102Z,9.18
2022-08-29T21:56:49.392Z,9.45
2022-08-29T21:59:19.218Z,10.77
2022-08-29T22:01:54.667Z,10.02
2022-08-29T22:04:28.063Z,8.50
2022-08-29T22:06:59.897Z,7.10
2022-08-29T22:09:28.744Z,12.07
2022-08-29T22:11:57.170Z,8.70
2022-08-29T22:14:45.817Z,7.93
2022-08-29T22:17:13.389Z,12.23
2022-08-29T22:19:41.844Z,8.25
2022-08-29T22:22:11.872Z,10.15
2022-08-29T22:24:39.961Z,9.38
2022-08-29T22:27:08.094Z,8.35
2022-08-29T22:29:37.160Z,9.73
2022-08-29T22:32:05.574Z,9.90
2022-08-29T22:34:33.598Z,10.88
2022-08-29T22:37:01.753Z,11.65
2022-08-29T22:39:31.150Z,10.98
2022-08-29T22:41:59.236Z,10.40
2022-08-29T22:47:15.494Z,8.27
2022-08-29T22:49:43.576Z,11.40
2022-08-29T22:52:11.962Z,14.38
2022-08-29T22:54:41.493Z,11.55
2022-08-29T22:57:13.000Z,10.60
2022-08-29T22:59:42.608Z,12.32
2022-08-29T23:02:14.718Z,10.38
2022-08-29T23:04:43.954Z,10.98
2022-08-29T23:07:14.131Z,9.60
2022-08-29T23:09:45.409Z,11.55
2022-08-29T23:12:14.933Z,10.93
2022-08-29T23:14:46.597Z,8.43
2022-08-29T23:17:16.253Z,11.18
2022-08-29T23:19:44.545Z,9.60
2022-08-29T23:22:14.480Z,11.23
2022-08-29T23:24:49.786Z,10.43
2022-08-29T23:27:27.329Z,9.20
2022-08-29T23:29:55.452Z,11.93
2022-08-29T23:32:23.552Z,12.02
2022-08-29T23:34:51.639Z,11.38
2022-08-29T23:37:19.773Z,9.45
2022-08-29T23:39:49.103Z,12.60
2022-08-29T23:42:17.416Z,9.40
2022-08-29T23:44:45.815Z,12.52
2022-08-29T23:47:17.405Z,15.20
2022-08-29T23:49:45.595Z,10.18
2022-08-29T23:52:14.178Z,11.55
2022-08-29T23:54:42.229Z,13.07
2022-08-29T23:57:11.770Z,9.10
2022-08-29T23:59:57.265Z,16.00
